Airfield :
LOGIN :

Register | Disclaimer

   EN    FR    IT 

 










Legend :    VFR   Marginal VFR   IFR   Intensive IFR   Very Intensive IFR
Visi :
Ceiling :
>= 8 km
>= 3000ft
5 to 8 km
1000 to 3000 ft
1500m to 5 km
500 to 1000 ft
800 to 1500m
200 to 500 ft
< 800m
< 200 ft
Symbols :   Thunderstorms  Fog  Heavy snow  Heavy precipitations  Wind > 20 kt
SIGMETs :     Misc.  Thunderstorms  Icing  Turbulence  Mountain Waves  Volcanic Ashes







- Airport Elevation : 782 ft
- IATA code : BGY


LIME - Orio al Serio International - Bergamo

CURRENT METAR :
  • 262150Z VRB01KT 9999 SCT030 BKN070 17/15 Q1014 NOSIG

EXPIRED METARs :
  • 262120Z VRB02KT 9999 BKN090 18/14 Q1014 NOSIG
  • 262050Z 01003KT 320V040 9999 SCT060 BKN090 18/14 Q1014 NOSIG
  • 262020Z 02004KT 320V050 9999 SCT050 BKN090 18/15 Q1014 NOSIG
  • 261950Z 08003KT 050V110 9999 SCT045 SCT080 19/14 Q1013 NOSIG
  • 261920Z 09004KT 9999 SCT060 BKN080 19/14 Q1013 NOSIG
  • 261850Z 07003KT 9999 SCT060 BKN090 19/13 Q1013 NOSIG

TAF TAF LIME
Valid from the 26 at 18:00 until the 27 at 18:00 UTC


261700Z 2618/2718 VRB05KT 9999 SCT030 BKN070
TEMPO 2618/2621 SHRA
BECMG 2705/2707 RA
No reported NOTAMs for that airfield.



MET'MAP, your aeronautical weather chart ! - Copyright ORBIFLY December 2007 - Disclaimer

ORBIFLY MET'MAP TEAM :

Programming & Development : Alexandra Zaïnal
Concept & Development : Baudouin d'Aumeries
Co-Development & Prog : Marc-Olivier Méhu
Technical & hardware support : Manuel Goepfert

Contact : metmap@orbifly.com




SOURCES & CREDITS :

   NOAA